Time;durP1;ratioP1;P1;durP2;ratioP2;P2;SDS_P1;SDS_P2;PMS_P1;PMS_P2;Temp;Humidity;BMP_temperature;BMP_pressure;BME280_temperature;BME280_humidity;BME280_pressure;Samples;Min_cycle;Max_cycle;Signal;HPM_P1;HPM_P2
2024/01/12 00:01:13;;;;;;;29.8;17.3;;;;;;;;;;;;;
2024/01/12 00:03:38;;;;;;;25;15.2;;;;;;;;;;;;;
2024/01/12 00:06:06;;;;;;;24.9;14.4;;;;;;;;;;;;;
2024/01/12 00:08:29;;;;;;;27.6;16.5;;;;;;;;;;;;;
2024/01/12 00:10:56;;;;;;;26.6;15.3;;;;;;;;;;;;;
2024/01/12 00:13:22;;;;;;;26.4;15.6;;;;;;;;;;;;;
2024/01/12 00:15:48;;;;;;;24;14.9;;;;;;;;;;;;;
2024/01/12 00:18:13;;;;;;;26.9;15.7;;;;;;;;;;;;;
2024/01/12 00:20:42;;;;;;;26.3;15.6;;;;;;;;;;;;;
2024/01/12 00:23:04;;;;;;;28;17.1;;;;;;;;;;;;;
2024/01/12 00:25:31;;;;;;;34.9;21.1;;;;;;;;;;;;;
2024/01/12 00:27:56;;;;;;;29.9;17.1;;;;;;;;;;;;;
2024/01/12 00:30:21;;;;;;;38.8;22.4;;;;;;;;;;;;;
2024/01/12 00:32:46;;;;;;;29.3;17.5;;;;;;;;;;;;;
2024/01/12 00:35:17;;;;;;;24.9;15.3;;;;;;;;;;;;;
2024/01/12 00:37:48;;;;;;;24.9;14.8;;;;;;;;;;;;;
2024/01/12 00:40:12;;;;;;;26.5;13.6;;;;;;;;;;;;;
2024/01/12 00:42:38;;;;;;;25.8;14.9;;;;;;;;;;;;;
2024/01/12 00:45:03;;;;;;;26.3;15.1;;;;;;;;;;;;;
2024/01/12 00:47:29;;;;;;;24.5;14.9;;;;;;;;;;;;;
2024/01/12 00:49:54;;;;;;;25.7;14.9;;;;;;;;;;;;;
2024/01/12 00:52:21;;;;;;;25.7;14.4;;;;;;;;;;;;;
2024/01/12 00:54:46;;;;;;;23.9;13.7;;;;;;;;;;;;;
2024/01/12 00:57:12;;;;;;;23.7;13.6;;;;;;;;;;;;;
2024/01/12 00:59:37;;;;;;;21.7;12.5;;;;;;;;;;;;;
2024/01/12 01:02:04;;;;;;;27.8;15.2;;;;;;;;;;;;;
2024/01/12 01:04:29;;;;;;;26.4;14.7;;;;;;;;;;;;;
2024/01/12 01:06:56;;;;;;;27;15.2;;;;;;;;;;;;;
2024/01/12 01:09:21;;;;;;;22.9;13.7;;;;;;;;;;;;;
2024/01/12 01:11:52;;;;;;;25.4;13.3;;;;;;;;;;;;;
2024/01/12 01:14:13;;;;;;;20.2;11.4;;;;;;;;;;;;;
2024/01/12 01:16:38;;;;;;;20.4;12.2;;;;;;;;;;;;;
2024/01/12 01:19:04;;;;;;;22.1;12.3;;;;;;;;;;;;;
2024/01/12 01:21:32;;;;;;;16.9;10.8;;;;;;;;;;;;;
2024/01/12 01:23:57;;;;;;;19.4;10.3;;;;;;;;;;;;;
2024/01/12 01:26:23;;;;;;;16.4;10;;;;;;;;;;;;;
2024/01/12 01:28:49;;;;;;;18.4;10.6;;;;;;;;;;;;;
2024/01/12 01:31:16;;;;;;;17.5;10.7;;;;;;;;;;;;;
2024/01/12 01:33:41;;;;;;;17.6;10.3;;;;;;;;;;;;;
2024/01/12 01:36:06;;;;;;;16.4;9.7;;;;;;;;;;;;;
2024/01/12 01:38:31;;;;;;;16.2;9.2;;;;;;;;;;;;;
2024/01/12 01:41:02;;;;;;;16.2;9.4;;;;;;;;;;;;;
2024/01/12 01:43:27;;;;;;;15.9;8.9;;;;;;;;;;;;;
2024/01/12 01:45:55;;;;;;;14.8;8.7;;;;;;;;;;;;;
2024/01/12 01:48:22;;;;;;;14.7;8.7;;;;;;;;;;;;;
2024/01/12 01:50:48;;;;;;;13.2;8.2;;;;;;;;;;;;;
2024/01/12 01:53:13;;;;;;;12.6;7.8;;;;;;;;;;;;;
2024/01/12 01:55:39;;;;;;;11.6;7.6;;;;;;;;;;;;;
2024/01/12 01:58:04;;;;;;;12.7;7.7;;;;;;;;;;;;;
2024/01/12 02:00:31;;;;;;;12.2;7.3;;;;;;;;;;;;;
2024/01/12 02:02:56;;;;;;;12.4;7.6;;;;;;;;;;;;;
2024/01/12 02:05:23;;;;;;;12.5;7.1;;;;;;;;;;;;;
2024/01/12 02:07:52;;;;;;;11.8;6.6;;;;;;;;;;;;;
2024/01/12 02:10:20;;;;;;;12.8;7.2;;;;;;;;;;;;;
2024/01/12 02:12:50;;;;;;;12.8;7.4;;;;;;;;;;;;;
2024/01/12 02:15:17;;;;;;;13.8;7.5;;;;;;;;;;;;;
2024/01/12 02:17:45;;;;;;;16.8;10.2;;;;;;;;;;;;;
2024/01/12 02:20:16;;;;;;;16.5;10.1;;;;;;;;;;;;;
2024/01/12 02:22:44;;;;;;;16;8.9;;;;;;;;;;;;;
2024/01/12 02:25:09;;;;;;;12.6;8.1;;;;;;;;;;;;;
2024/01/12 02:27:34;;;;;;;12.9;7.8;;;;;;;;;;;;;
2024/01/12 02:30:00;;;;;;;12.2;7.4;;;;;;;;;;;;;
2024/01/12 02:32:28;;;;;;;13.9;7.8;;;;;;;;;;;;;
2024/01/12 02:34:53;;;;;;;13.3;7.7;;;;;;;;;;;;;
2024/01/12 02:37:22;;;;;;;10.3;6.9;;;;;;;;;;;;;
2024/01/12 02:39:48;;;;;;;12.1;6.7;;;;;;;;;;;;;
2024/01/12 02:42:13;;;;;;;9.9;6.3;;;;;;;;;;;;;
2024/01/12 02:44:38;;;;;;;9.2;6;;;;;;;;;;;;;
2024/01/12 02:47:07;;;;;;;10.3;5.9;;;;;;;;;;;;;
2024/01/12 02:49:31;;;;;;;10.6;6.2;;;;;;;;;;;;;
2024/01/12 02:51:56;;;;;;;11.8;6.9;;;;;;;;;;;;;
2024/01/12 02:54:22;;;;;;;10.8;6.7;;;;;;;;;;;;;
2024/01/12 02:56:48;;;;;;;10.5;6.5;;;;;;;;;;;;;
2024/01/12 02:59:13;;;;;;;11.8;7;;;;;;;;;;;;;
2024/01/12 03:01:43;;;;;;;12.8;7.5;;;;;;;;;;;;;
2024/01/12 03:04:08;;;;;;;14.2;8;;;;;;;;;;;;;
2024/01/12 03:06:35;;;;;;;17.2;10.3;;;;;;;;;;;;;
2024/01/12 03:09:00;;;;;;;18.2;9.7;;;;;;;;;;;;;
2024/01/12 03:11:27;;;;;;;11.3;7.1;;;;;;;;;;;;;
2024/01/12 03:13:52;;;;;;;13;6.9;;;;;;;;;;;;;
2024/01/12 03:16:21;;;;;;;9.7;6.1;;;;;;;;;;;;;
2024/01/12 03:18:45;;;;;;;11.4;6.1;;;;;;;;;;;;;
2024/01/12 03:21:11;;;;;;;9.6;5.8;;;;;;;;;;;;;
2024/01/12 03:23:37;;;;;;;10.2;5.9;;;;;;;;;;;;;
2024/01/12 03:26:04;;;;;;;9.8;5.9;;;;;;;;;;;;;
2024/01/12 03:28:29;;;;;;;8.3;5.6;;;;;;;;;;;;;
2024/01/12 03:30:56;;;;;;;8.8;5.5;;;;;;;;;;;;;
2024/01/12 03:33:21;;;;;;;10;5.6;;;;;;;;;;;;;
2024/01/12 03:35:49;;;;;;;10.1;5.8;;;;;;;;;;;;;
2024/01/12 03:38:14;;;;;;;9.8;6.1;;;;;;;;;;;;;
2024/01/12 03:40:40;;;;;;;10.9;6.2;;;;;;;;;;;;;
2024/01/12 03:43:05;;;;;;;12.1;6.3;;;;;;;;;;;;;
2024/01/12 03:45:31;;;;;;;9.7;6.1;;;;;;;;;;;;;
2024/01/12 03:47:56;;;;;;;9;6;;;;;;;;;;;;;
2024/01/12 03:50:21;;;;;;;10.1;5.7;;;;;;;;;;;;;
2024/01/12 03:52:47;;;;;;;12;5.8;;;;;;;;;;;;;
2024/01/12 03:55:16;;;;;;;9;5.5;;;;;;;;;;;;;
2024/01/12 03:57:45;;;;;;;9;6.1;;;;;;;;;;;;;
2024/01/12 04:02:37;;;;;;;9.9;5.9;;;;;;;-6.29;82.88379;946.1863;;;;
2024/01/12 04:05:14;;;;;;;10.4;5.8;;;;;;;-6.14;82.7041;946.1534;;;;
2024/01/12 04:07:44;;;;;;;10.5;5.9;;;;;;;-6.19;82.48438;946.1674;;;;
2024/01/12 04:10:21;;;;;;;9.6;6.1;;;;;;;-6.16;82.72266;946.0934;;;;
2024/01/12 04:12:48;;;;;;;9.9;6.4;;;;;;;;;;;;;
2024/01/12 04:15:13;;;;;;;10.3;6.2;;;;;;;;;;;;;
2024/01/12 04:17:43;;;;;;;9.8;6.4;;;;;;;;;;;;;
2024/01/12 04:20:15;;;;;;;10;6.2;;;;;;;;;;;;;
2024/01/12 04:22:44;;;;;;;8.9;6;;;;;;;;;;;;;
2024/01/12 04:25:09;;;;;;;9.6;5.9;;;;;;;;;;;;;
2024/01/12 04:27:40;;;;;;;11.6;6.4;;;;;;;;;;;;;
2024/01/12 04:30:10;;;;;;;11.3;6.1;;;;;;;;;;;;;
2024/01/12 04:32:40;;;;;;;9.8;6.6;;;;;;;;;;;;;
2024/01/12 04:35:05;;;;;;;9;5.8;;;;;;;;;;;;;
2024/01/12 04:37:34;;;;;;;11.4;6.3;;;;;;;;;;;;;
2024/01/12 04:39:58;;;;;;;9.7;6.1;;;;;;;;;;;;;
2024/01/12 04:42:26;;;;;;;12.3;6.3;;;;;;;;;;;;;
2024/01/12 04:44:54;;;;;;;8.8;5.7;;;;;;;;;;;;;
2024/01/12 04:47:20;;;;;;;13.1;7.3;;;;;;;;;;;;;
2024/01/12 04:49:47;;;;;;;12;7.3;;;;;;;;;;;;;
2024/01/12 04:52:12;;;;;;;10.5;6.1;;;;;;;;;;;;;
2024/01/12 04:54:38;;;;;;;11;6.7;;;;;;;;;;;;;
2024/01/12 04:57:03;;;;;;;11.2;7;;;;;;;;;;;;;
2024/01/12 04:59:29;;;;;;;11.7;6.8;;;;;;;;;;;;;
2024/01/12 05:01:54;;;;;;;14.1;8.3;;;;;;;;;;;;;
2024/01/12 05:04:23;;;;;;;13.2;7.4;;;;;;;;;;;;;
2024/01/12 05:06:50;;;;;;;13.4;7.5;;;;;;;;;;;;;
2024/01/12 05:09:15;;;;;;;11.4;7.4;;;;;;;;;;;;;
2024/01/12 05:11:42;;;;;;;13.8;7.5;;;;;;;;;;;;;
2024/01/12 05:14:07;;;;;;;11.4;6.9;;;;;;;;;;;;;
2024/01/12 05:16:33;;;;;;;13.1;7.2;;;;;;;;;;;;;
2024/01/12 05:18:58;;;;;;;12.4;7.7;;;;;;;;;;;;;
2024/01/12 05:21:25;;;;;;;9.8;6.5;;;;;;;;;;;;;
2024/01/12 05:23:50;;;;;;;11;6.5;;;;;;;;;;;;;
2024/01/12 05:26:15;;;;;;;11.5;6.9;;;;;;;;;;;;;
2024/01/12 05:28:40;;;;;;;9.7;6.6;;;;;;;;;;;;;
2024/01/12 05:31:08;;;;;;;12.2;6.9;;;;;;;;;;;;;
2024/01/12 05:33:33;;;;;;;10;6.8;;;;;;;;;;;;;
2024/01/12 05:35:59;;;;;;;12.4;7.1;;;;;;;;;;;;;
2024/01/12 05:38:24;;;;;;;10.8;7.2;;;;;;;;;;;;;
2024/01/12 05:40:50;;;;;;;11.9;7.5;;;;;;;;;;;;;
2024/01/12 05:43:17;;;;;;;9.9;6.9;;;;;;;;;;;;;
2024/01/12 05:45:46;;;;;;;11.3;7.5;;;;;;;;;;;;;
2024/01/12 05:48:16;;;;;;;12.7;7.4;;;;;;;;;;;;;
2024/01/12 05:50:46;;;;;;;11.5;7.4;;;;;;;;;;;;;
2024/01/12 05:53:21;;;;;;;11.3;7.7;;;;;;;;;;;;;
2024/01/12 05:55:41;;;;;;;15.5;9.5;;;;;;;;;;;;;
2024/01/12 05:58:11;;;;;;;14.4;9.2;;;;;;;;;;;;;
2024/01/12 06:00:36;;;;;;;16.9;9.3;;;;;;;;;;;;;
2024/01/12 06:03:03;;;;;;;18.5;9.2;;;;;;;;;;;;;
2024/01/12 06:05:28;;;;;;;15;8.7;;;;;;;;;;;;;
2024/01/12 06:07:53;;;;;;;11.3;7;;;;;;;;;;;;;
2024/01/12 06:10:18;;;;;;;14;8.4;;;;;;;;;;;;;
2024/01/12 06:12:43;;;;;;;16.1;9.6;;;;;;;;;;;;;
2024/01/12 06:15:09;;;;;;;19.6;11;;;;;;;;;;;;;
2024/01/12 06:17:38;;;;;;;24.7;12.2;;;;;;;;;;;;;
2024/01/12 06:20:04;;;;;;;21.3;11.7;;;;;;;;;;;;;
2024/01/12 06:22:29;;;;;;;17.4;10.7;;;;;;;;;;;;;
2024/01/12 06:24:54;;;;;;;14.1;9.1;;;;;;;;;;;;;
2024/01/12 06:27:20;;;;;;;15.4;9;;;;;;;;;;;;;
2024/01/12 06:29:45;;;;;;;11.4;7.6;;;;;;;;;;;;;
2024/01/12 06:32:13;;;;;;;11.7;7.5;;;;;;;;;;;;;
2024/01/12 06:34:38;;;;;;;10.8;7;;;;;;;;;;;;;
2024/01/12 06:37:05;;;;;;;10;7;;;;;;;;;;;;;
2024/01/12 06:39:30;;;;;;;7.1;5.6;;;;;;;;;;;;;
2024/01/12 06:41:56;;;;;;;6.3;4.5;;;;;;;;;;;;;
2024/01/12 06:44:21;;;;;;;6.3;4.1;;;;;;;;;;;;;
2024/01/12 06:46:50;;;;;;;6.2;4;;;;;;;;;;;;;
2024/01/12 06:49:15;;;;;;;7.1;4.5;;;;;;;;;;;;;
2024/01/12 06:51:43;;;;;;;5.9;3.7;;;;;;;;;;;;;
2024/01/12 06:54:08;;;;;;;4.5;3.4;;;;;;;;;;;;;
2024/01/12 06:56:37;;;;;;;6.3;3.8;;;;;;;;;;;;;
2024/01/12 06:59:01;;;;;;;5.8;4.3;;;;;;;;;;;;;
2024/01/12 07:01:30;;;;;;;5.8;4.1;;;;;;;;;;;;;
2024/01/12 07:03:58;;;;;;;7;4.7;;;;;;;;;;;;;
2024/01/12 07:06:23;;;;;;;9;6.4;;;;;;;;;;;;;
2024/01/12 07:08:48;;;;;;;10.9;6.5;;;;;;;;;;;;;
2024/01/12 07:11:13;;;;;;;11.5;7;;;;;;;;;;;;;
2024/01/12 07:13:40;;;;;;;13.9;8.6;;;;;;;;;;;;;
2024/01/12 07:16:05;;;;;;;13.8;8.7;;;;;;;;;;;;;
2024/01/12 07:18:32;;;;;;;16.3;9.8;;;;;;;;;;;;;
2024/01/12 07:21:02;;;;;;;18.6;10.3;;;;;;;;;;;;;
2024/01/12 07:23:23;;;;;;;17.2;9.9;;;;;;;;;;;;;
2024/01/12 07:25:50;;;;;;;14.1;9.6;;;;;;;;;;;;;
2024/01/12 07:28:15;;;;;;;12.8;8.2;;;;;;;;;;;;;
2024/01/12 07:30:42;;;;;;;12;7.7;;;;;;;;;;;;;
2024/01/12 07:33:08;;;;;;;13.8;8.1;;;;;;;;;;;;;
2024/01/12 07:35:33;;;;;;;12.9;7.4;;;;;;;;;;;;;
2024/01/12 07:37:58;;;;;;;9.1;6.3;;;;;;;;;;;;;
2024/01/12 07:40:26;;;;;;;9.7;6.5;;;;;;;;;;;;;
2024/01/12 07:42:51;;;;;;;10.7;6.1;;;;;;;;;;;;;
2024/01/12 07:45:20;;;;;;;8.6;5.6;;;;;;;;;;;;;
2024/01/12 07:47:50;;;;;;;8.2;5.5;;;;;;;;;;;;;
2024/01/12 07:50:15;;;;;;;8.4;5.6;;;;;;;;;;;;;
2024/01/12 07:52:41;;;;;;;8.6;6.2;;;;;;;;;;;;;
2024/01/12 07:55:07;;;;;;;7.1;5.4;;;;;;;;;;;;;
2024/01/12 07:57:33;;;;;;;6.3;4.8;;;;;;;;;;;;;
2024/01/12 07:59:58;;;;;;;11.1;6.5;;;;;;;;;;;;;
2024/01/12 08:02:26;;;;;;;15.2;9.7;;;;;;;;;;;;;
2024/01/12 08:04:51;;;;;;;17.3;9.8;;;;;;;;;;;;;
2024/01/12 08:07:16;;;;;;;12.5;8.5;;;;;;;;;;;;;
2024/01/12 08:09:41;;;;;;;11;7.8;;;;;;;;;;;;;
2024/01/12 08:12:07;;;;;;;11.5;8;;;;;;;;;;;;;
2024/01/12 08:14:32;;;;;;;11.3;7.1;;;;;;;;;;;;;
2024/01/12 08:16:58;;;;;;;9.9;7.1;;;;;;;;;;;;;
2024/01/12 08:19:23;;;;;;;11.7;7.6;;;;;;;;;;;;;
2024/01/12 08:21:53;;;;;;;11.7;7.7;;;;;;;;;;;;;
2024/01/12 08:24:18;;;;;;;10.4;7.4;;;;;;;;;;;;;
2024/01/12 08:26:44;;;;;;;11;7.2;;;;;;;;;;;;;
2024/01/12 08:29:10;;;;;;;9.7;7.1;;;;;;;;;;;;;
2024/01/12 08:31:35;;;;;;;9.6;7.1;;;;;;;;;;;;;
2024/01/12 08:34:00;;;;;;;11.1;7.1;;;;;;;;;;;;;
2024/01/12 08:36:29;;;;;;;10.6;7.5;;;;;;;;;;;;;
2024/01/12 08:38:58;;;;;;;12.2;7.5;;;;;;;;;;;;;
2024/01/12 08:41:23;;;;;;;11.8;8.9;;;;;;;;;;;;;
2024/01/12 08:43:52;;;;;;;16.4;10.9;;;;;;;;;;;;;
2024/01/12 08:46:15;;;;;;;26.8;17.2;;;;;;;;;;;;;
2024/01/12 08:48:42;;;;;;;31.1;19.4;;;;;;;;;;;;;
2024/01/12 08:51:06;;;;;;;22.7;14.9;;;;;;;;;;;;;
2024/01/12 08:53:33;;;;;;;18.9;12.5;;;;;;;;;;;;;
2024/01/12 08:55:58;;;;;;;15.4;10.6;;;;;;;;;;;;;
2024/01/12 08:58:25;;;;;;;16.1;9.9;;;;;;;;;;;;;
2024/01/12 09:00:50;;;;;;;16.7;10.5;;;;;;;;;;;;;
2024/01/12 09:03:16;;;;;;;16.1;10.7;;;;;;;;;;;;;
2024/01/12 09:05:41;;;;;;;14.9;9.4;;;;;;;;;;;;;
2024/01/12 09:08:08;;;;;;;11.3;7.6;;;;;;;;;;;;;
2024/01/12 09:10:33;;;;;;;8.9;6.9;;;;;;;;;;;;;
2024/01/12 09:13:00;;;;;;;15.2;9.3;;;;;;;;;;;;;
2024/01/12 09:15:25;;;;;;;13.1;9;;;;;;;;;;;;;
2024/01/12 09:17:51;;;;;;;8.7;6.4;;;;;;;;;;;;;
2024/01/12 09:20:18;;;;;;;8.2;5.9;;;;;;;;;;;;;
2024/01/12 09:22:44;;;;;;;8.1;6.1;;;;;;;;;;;;;
2024/01/12 09:25:09;;;;;;;8.4;5.6;;;;;;;;;;;;;
2024/01/12 09:27:36;;;;;;;8.8;6.7;;;;;;;;;;;;;
2024/01/12 09:30:01;;;;;;;17.9;13.5;;;;;;;;;;;;;
2024/01/12 09:32:27;;;;;;;9.6;7.6;;;;;;;;;;;;;
2024/01/12 09:34:52;;;;;;;9.5;6.1;;;;;;;;;;;;;
2024/01/12 09:37:18;;;;;;;9.7;6.3;;;;;;;;;;;;;
2024/01/12 09:39:43;;;;;;;7.2;4.9;;;;;;;;;;;;;
2024/01/12 09:42:10;;;;;;;8.8;5.6;;;;;;;;;;;;;
2024/01/12 09:44:35;;;;;;;7.3;5.3;;;;;;;;;;;;;
2024/01/12 09:47:01;;;;;;;8.1;5.5;;;;;;;;;;;;;
2024/01/12 09:49:26;;;;;;;9.5;6.7;;;;;;;;;;;;;
2024/01/12 09:51:53;;;;;;;9.9;6.8;;;;;;;;;;;;;
2024/01/12 09:54:18;;;;;;;8.9;6.5;;;;;;;;;;;;;
2024/01/12 09:56:44;;;;;;;11.4;7.9;;;;;;;;;;;;;
2024/01/12 09:59:09;;;;;;;12.4;8.2;;;;;;;;;;;;;
2024/01/12 10:01:37;;;;;;;13.1;9.3;;;;;;;;;;;;;
2024/01/12 10:04:02;;;;;;;13.4;9.7;;;;;;;;;;;;;
2024/01/12 10:06:27;;;;;;;12.3;9.1;;;;;;;;;;;;;
2024/01/12 10:08:52;;;;;;;14.3;9.8;;;;;;;;;;;;;
2024/01/12 10:11:18;;;;;;;12.3;9.4;;;;;;;;;;;;;
2024/01/12 10:13:43;;;;;;;12.6;9.4;;;;;;;;;;;;;
2024/01/12 10:16:09;;;;;;;13.2;9.5;;;;;;;;;;;;;
2024/01/12 10:18:34;;;;;;;12.1;8.4;;;;;;;;;;;;;
2024/01/12 10:21:02;;;;;;;13.6;9;;;;;;;;;;;;;
2024/01/12 10:23:28;;;;;;;11.9;8.4;;;;;;;;;;;;;
2024/01/12 10:25:53;;;;;;;10.3;7.7;;;;;;;;;;;;;
2024/01/12 10:28:19;;;;;;;8.8;6.5;;;;;;;;;;;;;
2024/01/12 10:30:46;;;;;;;8.2;6.5;;;;;;;;;;;;;
2024/01/12 10:33:12;;;;;;;9.5;6.8;;;;;;;;;;;;;
2024/01/12 10:35:39;;;;;;;9.6;6.3;;;;;;;;;;;;;
2024/01/12 10:38:04;;;;;;;11.2;6.4;;;;;;;;;;;;;
2024/01/12 10:40:29;;;;;;;9.4;5.7;;;;;;;;;;;;;
2024/01/12 10:42:54;;;;;;;7.2;4.5;;;;;;;;;;;;;
2024/01/12 10:45:23;;;;;;;7.7;4.7;;;;;;;;;;;;;
2024/01/12 10:47:47;;;;;;;6.9;4.1;;;;;;;;;;;;;
2024/01/12 10:50:12;;;;;;;7.7;4.8;;;;;;;;;;;;;
2024/01/12 10:52:38;;;;;;;7;4.5;;;;;;;;;;;;;
2024/01/12 10:55:04;;;;;;;6.1;4.1;;;;;;;;;;;;;
2024/01/12 10:57:29;;;;;;;5.3;3.8;;;;;;;;;;;;;
2024/01/12 10:59:54;;;;;;;5.7;3.9;;;;;;;;;;;;;
2024/01/12 11:02:19;;;;;;;6.6;4.6;;;;;;;;;;;;;
2024/01/12 11:04:48;;;;;;;8.7;5.4;;;;;;;;;;;;;
2024/01/12 11:07:12;;;;;;;11.6;6.1;;;;;;;;;;;;;
2024/01/12 11:09:38;;;;;;;11.4;5.8;;;;;;;;;;;;;
2024/01/12 11:12:04;;;;;;;6.8;4.5;;;;;;;;;;;;;
2024/01/12 11:14:29;;;;;;;4.6;3.8;;;;;;;;;;;;;
2024/01/12 11:16:58;;;;;;;4.3;3.2;;;;;;;;;;;;;
2024/01/12 11:19:27;;;;;;;4.5;3.3;;;;;;;;;;;;;
2024/01/12 11:21:50;;;;;;;4.3;2.9;;;;;;;;;;;;;
2024/01/12 11:24:16;;;;;;;4.6;3;;;;;;;;;;;;;
2024/01/12 11:26:43;;;;;;;4.3;3;;;;;;;;;;;;;
2024/01/12 11:29:08;;;;;;;4.1;3;;;;;;;;;;;;;
2024/01/12 11:31:41;;;;;;;6.5;4.2;;;;;;;;;;;;;
2024/01/12 11:34:06;;;;;;;7.1;5.1;;;;;;;;;;;;;
2024/01/12 11:36:31;;;;;;;10.2;5.9;;;;;;;;;;;;;
2024/01/12 11:39:01;;;;;;;18.5;10.6;;;;;;;;;;;;;
2024/01/12 11:41:30;;;;;;;40.6;22.8;;;;;;;;;;;;;
2024/01/12 11:43:55;;;;;;;32.9;17.2;;;;;;;;;;;;;
2024/01/12 11:46:22;;;;;;;32.7;15.7;;;;;;;;;;;;;
2024/01/12 11:48:47;;;;;;;328.6;142.5;;;;;;;;;;;;;
2024/01/12 11:51:13;;;;;;;45.9;22.9;;;;;;;;;;;;;
2024/01/12 11:53:37;;;;;;;21.7;11.5;;;;;;;;;;;;;
2024/01/12 11:56:03;;;;;;;8.9;4.7;;;;;;;;;;;;;
2024/01/12 11:58:32;;;;;;;7.1;4.6;;;;;;;;;;;;;
2024/01/12 12:00:55;;;;;;;8.6;4.6;;;;;;;;;;;;;
2024/01/12 12:03:24;;;;;;;9.8;4.5;;;;;;;;;;;;;
2024/01/12 12:05:52;;;;;;;9.6;5.3;;;;;;;;;;;;;
2024/01/12 12:08:17;;;;;;;5.8;4;;;;;;;;;;;;;
2024/01/12 12:10:44;;;;;;;7.3;4.4;;;;;;;;;;;;;
2024/01/12 12:13:09;;;;;;;7.5;4.3;;;;;;;;;;;;;
2024/01/12 12:15:38;;;;;;;7.6;4.6;;;;;;;;;;;;;
2024/01/12 12:18:07;;;;;;;8.1;4.8;;;;;;;;;;;;;
2024/01/12 12:20:31;;;;;;;6.3;4.8;;;;;;;;;;;;;
2024/01/12 12:22:57;;;;;;;8.4;5.5;;;;;;;;;;;;;
2024/01/12 12:25:22;;;;;;;8;6;;;;;;;;;;;;;
2024/01/12 12:27:48;;;;;;;6.7;4.8;;;;;;;;;;;;;
2024/01/12 12:30:13;;;;;;;4.7;4.1;;;;;;;;;;;;;
2024/01/12 12:32:38;;;;;;;6.3;4.5;;;;;;;;;;;;;
2024/01/12 12:35:04;;;;;;;7.1;4.9;;;;;;;;;;;;;
2024/01/12 12:37:28;;;;;;;7.2;5.3;;;;;;;;;;;;;
2024/01/12 12:39:55;;;;;;;10.5;5.5;;;;;;;;;;;;;
2024/01/12 12:42:19;;;;;;;8.8;5.6;;;;;;;;;;;;;
2024/01/12 12:44:44;;;;;;;7.6;5.4;;;;;;;;;;;;;
2024/01/12 12:47:09;;;;;;;7.1;5.7;;;;;;;;;;;;;
2024/01/12 12:49:35;;;;;;;8.7;5.2;;;;;;;;;;;;;
2024/01/12 12:52:00;;;;;;;8.1;5.1;;;;;;;;;;;;;
2024/01/12 12:54:27;;;;;;;7.8;4.9;;;;;;;;;;;;;
2024/01/12 12:56:52;;;;;;;8;5.3;;;;;;;;;;;;;
2024/01/12 12:59:18;;;;;;;8.9;5.3;;;;;;;;;;;;;
2024/01/12 13:01:43;;;;;;;6.7;5.2;;;;;;;;;;;;;
2024/01/12 13:04:10;;;;;;;8;5.6;;;;;;;;;;;;;
2024/01/12 13:06:35;;;;;;;10.5;7.2;;;;;;;;;;;;;
2024/01/12 13:09:05;;;;;;;10.7;7.4;;;;;;;;;;;;;
2024/01/12 13:11:27;;;;;;;13;9.1;;;;;;;;;;;;;
2024/01/12 13:13:55;;;;;;;13.4;8.8;;;;;;;;;;;;;
2024/01/12 13:16:18;;;;;;;11.9;8.2;;;;;;;;;;;;;
2024/01/12 13:18:44;;;;;;;11;8;;;;;;;;;;;;;
2024/01/12 13:21:10;;;;;;;10.2;7.7;;;;;;;;;;;;;
2024/01/12 13:23:35;;;;;;;9.8;6.7;;;;;;;;;;;;;
2024/01/12 13:26:00;;;;;;;9.7;6.5;;;;;;;;;;;;;
2024/01/12 13:28:28;;;;;;;8.5;6.1;;;;;;;;;;;;;
2024/01/12 13:30:53;;;;;;;9.4;6.1;;;;;;;;;;;;;
2024/01/12 13:33:19;;;;;;;8;6;;;;;;;;;;;;;
2024/01/12 13:35:45;;;;;;;8.7;6.2;;;;;;;;;;;;;
2024/01/12 13:38:12;;;;;;;10.9;6.5;;;;;;;;;;;;;
2024/01/12 13:40:37;;;;;;;10;7.4;;;;;;;;;;;;;
2024/01/12 13:43:03;;;;;;;9.8;6.8;;;;;;;;;;;;;
2024/01/12 13:45:28;;;;;;;9.5;6.8;;;;;;;;;;;;;
2024/01/12 13:47:55;;;;;;;10.1;7.3;;;;;;;;;;;;;
2024/01/12 13:50:19;;;;;;;9.6;6.1;;;;;;;;;;;;;
2024/01/12 13:52:46;;;;;;;10.8;6.6;;;;;;;;;;;;;
2024/01/12 13:55:11;;;;;;;7.1;6;;;;;;;;;;;;;
2024/01/12 13:57:37;;;;;;;8.2;5.9;;;;;;;;;;;;;
2024/01/12 14:00:03;;;;;;;7.9;5.2;;;;;;;;;;;;;
2024/01/12 14:02:32;;;;;;;7.7;5.4;;;;;;;;;;;;;
2024/01/12 14:05:02;;;;;;;9.3;6.3;;;;;;;;;;;;;
2024/01/12 14:07:33;;;;;;;9.1;6.5;;;;;;;;;;;;;
2024/01/12 14:09:58;;;;;;;9;6.6;;;;;;;;;;;;;
2024/01/12 14:12:27;;;;;;;8.8;6.5;;;;;;;;;;;;;
2024/01/12 14:14:50;;;;;;;10.9;7.4;;;;;;;;;;;;;
2024/01/12 14:17:18;;;;;;;11.4;7.9;;;;;;;;;;;;;
2024/01/12 14:19:50;;;;;;;12.1;8.3;;;;;;;;;;;;;
2024/01/12 14:22:14;;;;;;;15.4;8.5;;;;;;;;;;;;;
2024/01/12 14:24:41;;;;;;;11.8;8.3;;;;;;;;;;;;;
2024/01/12 14:27:06;;;;;;;11.4;8.6;;;;;;;;;;;;;
2024/01/12 14:29:32;;;;;;;14.6;9.2;;;;;;;;;;;;;
2024/01/12 14:31:57;;;;;;;15.4;9.1;;;;;;;;;;;;;
2024/01/12 14:34:24;;;;;;;13.5;9.1;;;;;;;;;;;;;
2024/01/12 14:36:49;;;;;;;13.8;9.1;;;;;;;;;;;;;
2024/01/12 14:39:17;;;;;;;15.8;10.6;;;;;;;;;;;;;
2024/01/12 14:41:43;;;;;;;16.3;10.2;;;;;;;;;;;;;
2024/01/12 14:44:11;;;;;;;15.8;10.1;;;;;;;;;;;;;
2024/01/12 14:46:36;;;;;;;15.8;10.2;;;;;;;;;;;;;
2024/01/12 14:49:04;;;;;;;14;10.1;;;;;;;;;;;;;
2024/01/12 14:51:29;;;;;;;17.1;9.8;;;;;;;;;;;;;
2024/01/12 14:53:55;;;;;;;17.9;10.7;;;;;;;;;;;;;
2024/01/12 14:56:20;;;;;;;18.1;10.5;;;;;;;;;;;;;
2024/01/12 14:58:47;;;;;;;18.5;10.5;;;;;;;;;;;;;
2024/01/12 15:01:12;;;;;;;16.8;10.6;;;;;;;;;;;;;
2024/01/12 15:03:40;;;;;;;16.8;10.9;;;;;;;;;;;;;
2024/01/12 15:06:04;;;;;;;17.7;11.2;;;;;;;;;;;;;
2024/01/12 15:08:36;;;;;;;17.2;11.5;;;;;;;;;;;;;
2024/01/12 15:11:05;;;;;;;15.3;10.1;;;;;;;;;;;;;
2024/01/12 15:13:34;;;;;;;15.8;10.7;;;;;;;;;;;;;
2024/01/12 15:15:59;;;;;;;16.7;10.8;;;;;;;;;;;;;
2024/01/12 15:18:26;;;;;;;14.5;9.8;;;;;;;;;;;;;
2024/01/12 15:20:56;;;;;;;18.8;11;;;;;;;;;;;;;
2024/01/12 15:23:16;;;;;;;15.1;10.7;;;;;;;;;;;;;
2024/01/12 15:25:43;;;;;;;17;11.2;;;;;;;;;;;;;
2024/01/12 15:28:08;;;;;;;17.6;11.3;;;;;;;;;;;;;
2024/01/12 15:30:36;;;;;;;17.2;11.7;;;;;;;;;;;;;
2024/01/12 15:33:01;;;;;;;16.4;11.3;;;;;;;;;;;;;
2024/01/12 15:35:28;;;;;;;17.4;11;;;;;;;;;;;;;
2024/01/12 15:37:52;;;;;;;17.8;11.3;;;;;;;;;;;;;
2024/01/12 15:40:21;;;;;;;15.4;11;;;;;;;;;;;;;
2024/01/12 15:42:50;;;;;;;17.1;10.9;;;;;;;;;;;;;
2024/01/12 15:45:15;;;;;;;19;11.7;;;;;;;;;;;;;
2024/01/12 15:47:43;;;;;;;15.6;10.9;;;;;;;;;;;;;
2024/01/12 15:50:08;;;;;;;17.4;11.6;;;;;;;;;;;;;
2024/01/12 15:52:35;;;;;;;17;10.8;;;;;;;;;;;;;
2024/01/12 15:55:00;;;;;;;16.7;11.7;;;;;;;;;;;;;
2024/01/12 15:57:27;;;;;;;17.5;11.4;;;;;;;;;;;;;
2024/01/12 15:59:53;;;;;;;19.9;12.7;;;;;;;;;;;;;
2024/01/12 16:02:18;;;;;;;23.2;15;;;;;;;;;;;;;
2024/01/12 16:04:43;;;;;;;22.4;15.2;;;;;;;;;;;;;
2024/01/12 16:07:10;;;;;;;21.7;13.2;;;;;;;;;;;;;
2024/01/12 16:09:35;;;;;;;20;13.4;;;;;;;;;;;;;
2024/01/12 16:12:03;;;;;;;23.2;14.3;;;;;;;;;;;;;
2024/01/12 16:14:28;;;;;;;89.2;47.3;;;;;;;;;;;;;
2024/01/12 16:16:53;;;;;;;211.5;103.5;;;;;;;;;;;;;
2024/01/12 16:19:19;;;;;;;79.8;43.9;;;;;;;;;;;;;
2024/01/12 16:21:47;;;;;;;46.6;29.8;;;;;;;;;;;;;
2024/01/12 16:24:12;;;;;;;38;24;;;;;;;;;;;;;
2024/01/12 16:26:37;;;;;;;34.1;21.7;;;;;;;;;;;;;
2024/01/12 16:29:02;;;;;;;33.9;22.2;;;;;;;;;;;;;
2024/01/12 16:31:29;;;;;;;46.4;29.8;;;;;;;;;;;;;
2024/01/12 16:33:54;;;;;;;51.3;30.7;;;;;;;;;;;;;
2024/01/12 16:36:22;;;;;;;46.4;30.2;;;;;;;;;;;;;
2024/01/12 16:38:47;;;;;;;45.9;29.5;;;;;;;;;;;;;
2024/01/12 16:41:12;;;;;;;50.9;31.1;;;;;;;;;;;;;
2024/01/12 16:43:37;;;;;;;57.1;32.7;;;;;;;;;;;;;
2024/01/12 16:46:06;;;;;;;52.3;31.4;;;;;;;;;;;;;
2024/01/12 16:48:31;;;;;;;39.9;25.5;;;;;;;;;;;;;
2024/01/12 16:50:57;;;;;;;34.4;23.2;;;;;;;;;;;;;
2024/01/12 16:53:23;;;;;;;35.3;22.8;;;;;;;;;;;;;
2024/01/12 16:55:47;;;;;;;35;21.6;;;;;;;;;;;;;
2024/01/12 16:58:17;;;;;;;92.6;62;;;;;;;;;;;;;
2024/01/12 17:00:44;;;;;;;85.8;54.2;;;;;;;;;;;;;
2024/01/12 17:03:09;;;;;;;54.7;35.9;;;;;;;;;;;;;
2024/01/12 17:05:37;;;;;;;43.7;28;;;;;;;;;;;;;
2024/01/12 17:08:02;;;;;;;41;25.3;;;;;;;;;;;;;
2024/01/12 17:10:31;;;;;;;37.8;23.9;;;;;;;;;;;;;
2024/01/12 17:12:58;;;;;;;41.3;26.8;;;;;;;;;;;;;
2024/01/12 17:15:23;;;;;;;41.6;28.8;;;;;;;;;;;;;
2024/01/12 17:17:53;;;;;;;45.7;29;;;;;;;;;;;;;
2024/01/12 17:20:22;;;;;;;45.6;29.8;;;;;;;;;;;;;
2024/01/12 17:22:47;;;;;;;42.2;29.1;;;;;;;;;;;;;
2024/01/12 17:25:17;;;;;;;48.1;31.1;;;;;;;;;;;;;
2024/01/12 17:27:47;;;;;;;57.6;36.3;;;;;;;;;;;;;
2024/01/12 17:30:19;;;;;;;52.3;33.3;;;;;;;;;;;;;
2024/01/12 17:32:45;;;;;;;51.2;33.1;;;;;;;;;;;;;
2024/01/12 17:35:10;;;;;;;56.3;37.3;;;;;;;;;;;;;
2024/01/12 17:37:41;;;;;;;58;39.8;;;;;;;;;;;;;
2024/01/12 17:40:05;;;;;;;66.4;42.1;;;;;;;;;;;;;
2024/01/12 17:42:31;;;;;;;64.5;42.9;;;;;;;;;;;;;
2024/01/12 17:44:56;;;;;;;59.1;37.7;;;;;;;;;;;;;
2024/01/12 17:47:22;;;;;;;43.8;29.8;;;;;;;;;;;;;
2024/01/12 17:49:46;;;;;;;35.9;23;;;;;;;;;;;;;
2024/01/12 17:52:14;;;;;;;38.3;24.5;;;;;;;;;;;;;
2024/01/12 17:54:39;;;;;;;38.2;25.5;;;;;;;;;;;;;
2024/01/12 17:57:06;;;;;;;42.3;27.7;;;;;;;;;;;;;
2024/01/12 17:59:32;;;;;;;43.9;27.9;;;;;;;;;;;;;
2024/01/12 18:02:00;;;;;;;44.2;26.8;;;;;;;;;;;;;
2024/01/12 18:04:27;;;;;;;37.9;25.2;;;;;;;;;;;;;
2024/01/12 18:06:49;;;;;;;35.6;23.7;;;;;;;;;;;;;
2024/01/12 18:09:17;;;;;;;44.7;29.3;;;;;;;;;;;;;
2024/01/12 18:11:43;;;;;;;33.7;24.2;;;;;;;;;;;;;
2024/01/12 18:14:12;;;;;;;35.1;23.1;;;;;;;;;;;;;
2024/01/12 18:16:41;;;;;;;34.3;23.5;;;;;;;;;;;;;
2024/01/12 18:19:06;;;;;;;37.7;24.4;;;;;;;;;;;;;
2024/01/12 18:21:34;;;;;;;43.2;26.9;;;;;;;;;;;;;
2024/01/12 18:23:59;;;;;;;43.6;27.3;;;;;;;;;;;;;
2024/01/12 18:26:25;;;;;;;38.9;26.2;;;;;;;;;;;;;
2024/01/12 18:28:50;;;;;;;45.3;29.9;;;;;;;;;;;;;
2024/01/12 18:31:21;;;;;;;43.2;28.7;;;;;;;;;;;;;
2024/01/12 18:33:45;;;;;;;38.9;26;;;;;;;;;;;;;
2024/01/12 18:36:14;;;;;;;37.9;26.3;;;;;;;;;;;;;
2024/01/12 18:38:38;;;;;;;39.1;27.4;;;;;;;;;;;;;
2024/01/12 18:41:05;;;;;;;45.9;29.6;;;;;;;;;;;;;
2024/01/12 18:43:31;;;;;;;45.5;29.4;;;;;;;;;;;;;
2024/01/12 18:45:59;;;;;;;42.4;27.7;;;;;;;;;;;;;
2024/01/12 18:48:25;;;;;;;41.5;27.4;;;;;;;;;;;;;
2024/01/12 18:50:53;;;;;;;42.4;27.2;;;;;;;;;;;;;
2024/01/12 18:53:18;;;;;;;47;28.1;;;;;;;;;;;;;
2024/01/12 18:55:46;;;;;;;42.3;27.4;;;;;;;;;;;;;
2024/01/12 18:58:13;;;;;;;41.3;26.3;;;;;;;;;;;;;
2024/01/12 19:00:39;;;;;;;45.2;26.8;;;;;;;;;;;;;
2024/01/12 19:03:09;;;;;;;46.5;28.7;;;;;;;;;;;;;
2024/01/12 19:05:43;;;;;;;43.8;28.2;;;;;;;;;;;;;
2024/01/12 19:08:04;;;;;;;42.9;27.2;;;;;;;;;;;;;
2024/01/12 19:10:33;;;;;;;41.8;26.1;;;;;;;;;;;;;
2024/01/12 19:12:58;;;;;;;39.3;25.6;;;;;;;;;;;;;
2024/01/12 19:15:24;;;;;;;40.8;26.2;;;;;;;;;;;;;
2024/01/12 19:17:49;;;;;;;46.9;28.9;;;;;;;;;;;;;
2024/01/12 19:20:17;;;;;;;47.3;30.8;;;;;;;;;;;;;
2024/01/12 19:22:42;;;;;;;47.2;30.1;;;;;;;;;;;;;
2024/01/12 19:25:08;;;;;;;41.1;28.3;;;;;;;;;;;;;
2024/01/12 19:27:33;;;;;;;36.9;25.8;;;;;;;;;;;;;
2024/01/12 19:30:00;;;;;;;36.4;24.6;;;;;;;;;;;;;
2024/01/12 19:32:26;;;;;;;36;24.3;;;;;;;;;;;;;
2024/01/12 19:34:56;;;;;;;38.3;25;;;;;;;;;;;;;
2024/01/12 19:37:18;;;;;;;35.6;24;;;;;;;;;;;;;
2024/01/12 19:39:46;;;;;;;36;24.9;;;;;;;;;;;;;
2024/01/12 19:42:13;;;;;;;37.4;23.8;;;;;;;;;;;;;
2024/01/12 19:44:39;;;;;;;36.4;24.2;;;;;;;;;;;;;
2024/01/12 19:47:04;;;;;;;33.7;23.7;;;;;;;;;;;;;
2024/01/12 19:49:31;;;;;;;35.2;22.6;;;;;;;;;;;;;
2024/01/12 19:51:57;;;;;;;36.7;23.4;;;;;;;;;;;;;
2024/01/12 19:54:22;;;;;;;36.7;22.6;;;;;;;;;;;;;
2024/01/12 19:56:47;;;;;;;35.1;23.6;;;;;;;;;;;;;
2024/01/12 19:59:14;;;;;;;35.9;24.1;;;;;;;;;;;;;
2024/01/12 20:01:37;;;;;;;35.4;22.9;;;;;;;;;;;;;
2024/01/12 20:04:03;;;;;;;35.6;23.2;;;;;;;;;;;;;
2024/01/12 20:06:28;;;;;;;38.9;24.7;;;;;;;;;;;;;
2024/01/12 20:08:53;;;;;;;37.9;24.1;;;;;;;;;;;;;